Time;durP1;ratioP1;P1;durP2;ratioP2;P2;SDS_P1;SDS_P2;PMS_P1;PMS_P2;Temp;Humidity;BMP_temperature;BMP_pressure;BME280_temperature;BME280_humidity;BME280_pressure;Samples;Min_cycle;Max_cycle;Signal;HPM_P1;HPM_P2
2022/01/21 00:01:57;;;;;;;18.05;3.13;;;2.50;99.90;;;;;;5009135;28;20051;-69
2022/01/21 00:04:23;;;;;;;21.05;2.92;;;2.60;99.90;;;;;;4996885;28;20073;-69
2022/01/21 00:06:48;;;;;;;19.90;3.13;;;2.60;99.90;;;;;;5027970;28;20044;-70
2022/01/21 00:09:14;;;;;;;15.90;2.97;;;2.60;99.90;;;;;;4979727;28;20049;-70
2022/01/21 00:11:40;;;;;;;16.65;3.33;;;2.60;99.90;;;;;;5026916;28;20052;-69
2022/01/21 00:14:07;;;;;;;12.82;2.65;;;2.60;99.90;;;;;;5025578;28;20056;-70
2022/01/21 00:16:34;;;;;;;19.55;3.22;;;2.70;99.90;;;;;;5040663;28;20360;-67
2022/01/21 00:19:11;;;;;;;17.77;2.65;;;2.70;99.90;;;;;;5014040;28;20053;-69
2022/01/21 00:30:13;;;;;;;22.25;3.22;;;2.60;99.90;;;;;;5011352;28;20445;-68
2022/01/21 00:32:42;;;;;;;14.73;2.95;;;2.50;99.90;;;;;;5016876;28;20111;-69
2022/01/21 00:35:08;;;;;;;28.08;3.13;;;2.50;99.90;;;;;;5030310;28;20416;-70
2022/01/21 00:37:34;;;;;;;17.27;2.90;;;2.40;99.90;;;;;;5010537;28;20055;-70
2022/01/21 00:40:01;;;;;;;16.90;3.20;;;2.40;99.90;;;;;;5009079;28;20057;-67
2022/01/21 00:45:11;;;;;;;16.90;2.67;;;2.30;99.90;;;;;;5022129;28;20471;-70
2022/01/21 00:47:37;;;;;;;;;;;2.20;99.90;;;;;;5029412;28;20418;-69
2022/01/21 00:50:04;;;;;;;17.42;3.08;;;2.20;99.90;;;;;;5030381;28;19925;-68
2022/01/21 00:52:30;;;;;;;17.13;3.05;;;2.10;99.90;;;;;;4999695;28;20103;-68
2022/01/21 00:54:55;;;;;;;19.67;3.30;;;2.10;99.90;;;;;;5023674;28;20136;-69
2022/01/21 00:57:21;;;;;;;20.63;3.00;;;2.10;99.90;;;;;;5018421;28;20077;-67
2022/01/21 00:59:47;;;;;;;13.70;2.97;;;2.20;99.90;;;;;;5029811;28;20040;-68
2022/01/21 01:02:13;;;;;;;16.23;2.75;;;2.10;99.90;;;;;;5011015;28;20036;-69
2022/01/21 01:04:39;;;;;;;17.70;2.80;;;2.10;99.90;;;;;;5023024;28;20056;-70
2022/01/21 01:07:05;;;;;;;16.98;2.97;;;2.10;99.90;;;;;;5028227;28;20477;-68
2022/01/21 01:09:31;;;;;;;22.55;2.67;;;2.10;99.90;;;;;;5032347;28;20099;-67
2022/01/21 01:20:03;;;;;;;18.15;3.28;;;2.10;99.90;;;;;;5024712;28;20063;-69
2022/01/21 01:27:53;;;;;;;16.90;3.05;;;2.10;99.90;;;;;;5012965;28;20052;-69
2022/01/21 01:30:22;;;;;;;13.05;1.88;;;2.10;99.90;;;;;;5036614;28;20052;-69
2022/01/21 01:32:49;;;;;;;8.45;1.67;;;2.10;99.90;;;;;;5029484;28;20045;-69
2022/01/21 01:35:20;;;;;;;8.70;1.50;;;2.20;99.90;;;;;;5031136;28;20106;-69
2022/01/21 01:40:22;;;;;;;10.45;1.30;;;2.30;99.90;;;;;;5041163;28;20490;-69
2022/01/21 01:51:03;;;;;;;6.00;1.10;;;2.30;99.90;;;;;;5030992;28;20060;-69
2022/01/21 01:53:35;;;;;;;4.18;1.02;;;2.30;99.90;;;;;;5029034;28;20230;-69
2022/01/21 01:56:04;;;;;;;5.80;1.10;;;2.40;99.90;;;;;;5017566;28;20068;-67
2022/01/21 01:58:35;;;;;;;5.03;1.25;;;2.40;99.90;;;;;;5018472;28;20052;-68
2022/01/21 02:01:00;;;;;;;8.00;1.42;;;2.40;99.90;;;;;;5015365;28;20045;-67
2022/01/21 02:03:26;;;;;;;10.77;1.40;;;2.50;99.90;;;;;;5009154;28;20442;-67
2022/01/21 02:05:52;;;;;;;8.10;1.67;;;2.60;99.90;;;;;;5001771;28;20041;-66
2022/01/21 02:08:18;;;;;;;7.80;1.73;;;2.60;99.90;;;;;;5023465;28;20041;-67
2022/01/21 02:10:44;;;;;;;9.18;1.75;;;2.60;99.90;;;;;;5019455;28;20084;-67
2022/01/21 02:13:26;;;;;;;8.30;2.13;;;2.60;99.90;;;;;;5030627;28;20162;-68
2022/01/21 02:21:43;;;;;;;14.73;2.00;;;2.60;99.90;;;;;;5033332;28;20048;-67
2022/01/21 02:24:23;;;;;;;12.50;2.17;;;2.60;99.90;;;;;;5036380;28;20048;-68
2022/01/21 02:26:50;;;;;;;8.65;1.70;;;2.50;99.90;;;;;;5051038;28;20049;-68
2022/01/21 02:29:26;;;;;;;10.05;1.50;;;2.50;99.90;;;;;;5050301;28;20048;-67
2022/01/21 02:31:53;;;;;;;7.97;1.70;;;2.40;99.90;;;;;;5015812;28;20144;-67
2022/01/21 02:34:19;;;;;;;5.53;1.40;;;2.40;99.90;;;;;;5011718;28;20102;-68
2022/01/21 02:36:44;;;;;;;10.20;1.27;;;2.30;99.90;;;;;;5021202;28;20445;-67
2022/01/21 02:39:10;;;;;;;8.25;1.30;;;2.30;99.90;;;;;;5005602;28;20454;-68
2022/01/21 02:41:36;;;;;;;9.20;1.58;;;2.30;99.90;;;;;;5013017;28;20083;-68
2022/01/21 02:44:02;;;;;;;12.70;1.90;;;2.30;99.90;;;;;;5010459;28;20091;-68
2022/01/21 02:46:28;;;;;;;9.30;1.42;;;2.40;99.90;;;;;;5015980;28;20097;-68
2022/01/21 02:48:54;;;;;;;3.85;1.10;;;2.40;99.90;;;;;;5015032;28;20048;-68
2022/01/21 02:51:20;;;;;;;8.10;1.10;;;2.40;99.90;;;;;;5016477;28;20151;-67
2022/01/21 02:56:14;;;;;;;4.05;0.85;;;2.40;99.90;;;;;;5031282;28;20087;-67
2022/01/21 02:58:40;;;;;;;10.68;1.25;;;2.40;99.90;;;;;;5019645;28;20045;-68
2022/01/21 03:01:07;;;;;;;7.45;1.10;;;2.40;99.90;;;;;;5016975;28;20515;-67
2022/01/21 03:03:33;;;;;;;3.67;0.93;;;2.30;99.90;;;;;;5033913;28;20048;-67
2022/01/21 03:06:00;;;;;;;4.97;1.15;;;2.30;99.90;;;;;;5030635;28;20041;-68
2022/01/21 03:08:26;;;;;;;8.48;1.10;;;2.30;99.90;;;;;;5032953;28;20040;-68
2022/01/21 03:10:52;;;;;;;5.50;1.08;;;2.20;99.90;;;;;;5033920;28;20055;-69
2022/01/21 03:13:20;;;;;;;6.43;1.10;;;2.20;99.90;;;;;;5025899;28;20460;-67
2022/01/21 03:15:46;;;;;;;3.38;0.90;;;2.10;99.90;;;;;;5017951;28;20057;-68
2022/01/21 03:18:12;;;;;;;5.47;1.10;;;2.10;99.90;;;;;;5030922;28;20063;-69
2022/01/21 03:20:37;;;;;;;7.47;1.50;;;2.00;99.90;;;;;;5019961;28;20044;-67
2022/01/21 03:23:03;;;;;;;12.95;1.73;;;2.00;99.90;;;;;;5013887;28;20044;-68
2022/01/21 03:25:29;;;;;;;9.20;1.45;;;2.00;99.90;;;;;;5043764;28;20123;-67
2022/01/21 03:27:55;;;;;;;12.30;1.80;;;1.90;99.90;;;;;;5018462;28;20067;-69
2022/01/21 03:30:21;;;;;;;8.85;1.52;;;1.90;99.90;;;;;;5013826;28;20336;-69
2022/01/21 03:32:48;;;;;;;12.70;1.80;;;1.90;99.90;;;;;;5018985;28;20069;-67
2022/01/21 03:35:13;;;;;;;8.25;1.75;;;1.90;99.90;;;;;;5027519;28;20053;-69
2022/01/21 03:37:39;;;;;;;7.97;1.50;;;1.90;99.90;;;;;;5029025;28;20424;-67
2022/01/21 03:40:05;;;;;;;9.93;2.35;;;1.90;99.90;;;;;;5031090;28;20040;-69
2022/01/21 03:42:31;;;;;;;8.18;1.77;;;1.90;99.90;;;;;;5001024;28;20044;-67
2022/01/21 03:44:57;;;;;;;12.65;1.75;;;1.90;99.90;;;;;;5027479;28;20519;-69
2022/01/21 03:47:23;;;;;;;15.40;2.53;;;1.90;99.90;;;;;;5030790;28;20483;-67
2022/01/21 03:49:56;;;;;;;12.32;1.95;;;1.80;99.90;;;;;;5029798;28;20057;-69
2022/01/21 03:52:22;;;;;;;18.98;2.38;;;1.80;99.90;;;;;;5018098;28;20049;-69
2022/01/21 03:54:47;;;;;;;15.10;2.00;;;1.80;99.90;;;;;;5025514;28;20514;-69
2022/01/21 03:57:13;;;;;;;17.02;2.58;;;1.80;99.90;;;;;;5026987;28;20370;-67
2022/01/21 03:59:39;;;;;;;13.18;2.20;;;1.80;99.90;;;;;;5028728;28;20176;-69
2022/01/21 04:02:06;;;;;;;14.82;2.65;;;1.80;99.90;;;;;;5016263;28;20119;-69
2022/01/21 04:04:33;;;;;;;16.10;2.15;;;1.70;99.90;;;;;;5020869;28;20049;-69
2022/01/21 04:06:59;;;;;;;13.50;2.10;;;1.70;99.90;;;;;;5033311;28;20051;-67
2022/01/21 04:09:25;;;;;;;16.73;2.60;;;1.70;99.90;;;;;;5010827;28;20403;-69
2022/01/21 04:11:51;;;;;;;15.25;2.00;;;1.70;99.90;;;;;;5027173;28;20064;-67
2022/01/21 04:14:17;;;;;;;19.90;2.30;;;1.60;99.90;;;;;;4990984;28;20049;-69
2022/01/21 04:16:43;;;;;;;16.35;2.20;;;1.60;99.90;;;;;;5033400;28;20053;-69
2022/01/21 04:19:09;;;;;;;9.77;1.80;;;1.60;99.90;;;;;;5029762;28;20049;-69
2022/01/21 04:21:35;;;;;;;16.10;2.53;;;1.60;99.90;;;;;;5011762;28;20052;-67
2022/01/21 04:24:02;;;;;;;12.10;2.17;;;1.60;99.90;;;;;;5023385;28;20037;-67
2022/01/21 04:26:29;;;;;;;24.42;3.10;;;1.50;99.90;;;;;;5027901;28;20045;-69
2022/01/21 04:28:55;;;;;;;16.98;2.55;;;1.60;99.90;;;;;;5017774;28;20539;-67
2022/01/21 04:31:20;;;;;;;11.82;2.75;;;1.50;99.90;;;;;;5014983;28;20039;-70
2022/01/21 04:33:46;;;;;;;17.08;2.70;;;1.50;99.90;;;;;;5021736;28;20095;-68
2022/01/21 04:36:12;;;;;;;16.70;2.00;;;1.60;99.90;;;;;;5025668;28;20075;-69
2022/01/21 04:38:38;;;;;;;19.88;3.10;;;1.60;99.90;;;;;;4996598;28;20642;-69
2022/01/21 04:49:07;;;;;;;9.07;1.77;;;1.70;99.90;;;;;;5016619;28;20556;-70
2022/01/21 04:51:40;;;;;;;14.68;1.77;;;1.70;99.90;;;;;;5023612;28;20049;-69
2022/01/21 04:54:06;;;;;;;16.13;2.20;;;1.60;99.90;;;;;;5030246;28;20056;-69
2022/01/21 04:56:32;;;;;;;15.85;2.20;;;1.60;99.90;;;;;;5022657;28;20342;-69
2022/01/21 04:58:58;;;;;;;10.77;1.75;;;1.70;99.90;;;;;;5014522;28;20532;-69
2022/01/21 05:01:24;;;;;;;14.35;1.90;;;1.70;99.90;;;;;;5029063;28;20041;-69
2022/01/21 05:03:50;;;;;;;11.20;1.40;;;1.70;99.90;;;;;;5020728;28;20053;-67
2022/01/21 05:06:16;;;;;;;13.60;2.30;;;1.70;99.90;;;;;;5013516;28;20116;-69
2022/01/21 05:08:53;;;;;;;12.70;1.83;;;1.70;99.90;;;;;;5009171;28;20135;-69
2022/01/21 05:11:20;;;;;;;5.78;2.13;;;1.70;99.90;;;;;;5011132;28;20041;-69
2022/01/21 05:13:57;;;;;;;12.55;1.63;;;1.80;99.90;;;;;;5031282;28;20119;-69
2022/01/21 05:18:56;;;;;;;18.05;2.15;;;1.90;99.90;;;;;;5013881;28;20132;-67
2022/01/21 05:21:22;;;;;;;15.55;2.50;;;1.90;99.90;;;;;;5041905;28;20515;-69
2022/01/21 05:23:48;;;;;;;18.95;2.88;;;2.00;99.90;;;;;;5022921;28;20155;-69
2022/01/21 05:26:13;;;;;;;16.08;2.08;;;2.00;99.90;;;;;;5024046;28;20060;-68
2022/01/21 05:28:39;;;;;;;12.93;1.88;;;2.00;99.90;;;;;;5016867;28;20535;-69
2022/01/21 05:31:06;;;;;;;16.65;2.25;;;2.00;99.90;;;;;;5022407;28;20067;-69
2022/01/21 05:33:31;;;;;;;9.30;1.88;;;1.90;99.90;;;;;;5018393;28;20056;-69
2022/01/21 05:35:57;;;;;;;12.15;2.28;;;1.90;99.90;;;;;;5020822;28;20049;-69
2022/01/21 05:38:23;;;;;;;10.80;2.05;;;1.90;99.90;;;;;;4997508;28;20550;-69
2022/01/21 05:40:50;;;;;;;13.48;1.95;;;1.90;99.90;;;;;;5013286;28;20037;-68
2022/01/21 05:43:16;;;;;;;17.92;2.25;;;1.90;99.90;;;;;;5026888;28;20408;-69
2022/01/21 05:48:27;;;;;;;10.98;2.00;;;1.90;99.90;;;;;;5012888;28;20106;-69
2022/01/21 05:50:53;;;;;;;18.02;2.33;;;1.90;99.90;;;;;;5016103;28;20049;-69
2022/01/21 05:53:18;;;;;;;26.65;2.40;;;1.90;99.90;;;;;;5012132;28;20080;-67
2022/01/21 05:55:44;;;;;;;16.38;1.75;;;1.90;99.90;;;;;;5028234;28;20057;-69
2022/01/21 05:58:13;;;;;;;8.75;1.77;;;2.00;99.90;;;;;;5009232;28;20049;-69
2022/01/21 06:00:41;;;;;;;12.13;1.77;;;2.00;99.90;;;;;;5026590;28;20128;-69
2022/01/21 06:03:07;;;;;;;10.90;2.70;;;2.00;99.90;;;;;;5029952;28;20663;-68
2022/01/21 06:05:33;;;;;;;13.43;1.88;;;2.10;99.90;;;;;;5023590;28;20041;-67
2022/01/21 06:08:01;;;;;;;13.98;2.17;;;2.20;99.90;;;;;;4993651;28;20042;-66
2022/01/21 06:10:27;;;;;;;12.00;1.60;;;2.20;99.90;;;;;;5027267;28;20056;-68
2022/01/21 06:12:53;;;;;;;9.52;1.63;;;2.30;99.90;;;;;;5015854;28;20049;-68
2022/01/21 06:15:19;;;;;;;9.93;2.28;;;2.30;99.90;;;;;;5026857;28;20049;-69
2022/01/21 06:17:45;;;;;;;9.60;2.03;;;2.30;99.90;;;;;;5028543;28;20408;-68
2022/01/21 06:20:11;;;;;;;10.40;1.65;;;2.40;99.90;;;;;;5028679;28;20143;-69
2022/01/21 06:22:37;;;;;;;13.45;1.80;;;2.30;99.90;;;;;;5037283;28;20656;-67
2022/01/21 06:25:03;;;;;;;9.68;1.88;;;2.30;99.90;;;;;;5009080;28;20043;-68
2022/01/21 06:27:31;;;;;;;11.60;1.83;;;2.30;99.90;;;;;;5027399;28;20567;-69
2022/01/21 06:29:57;;;;;;;10.63;2.00;;;2.30;99.90;;;;;;5029876;28;20059;-67
2022/01/21 06:32:25;;;;;;;9.15;1.92;;;2.30;99.90;;;;;;4991799;28;20334;-67
2022/01/21 06:34:51;;;;;;;18.70;2.47;;;2.30;99.90;;;;;;5028164;28;20050;-68
2022/01/21 06:37:17;;;;;;;12.20;2.25;;;2.20;99.90;;;;;;5023679;28;20049;-69
2022/01/21 06:39:43;;;;;;;14.70;2.22;;;2.10;99.90;;;;;;5011442;28;20571;-68
2022/01/21 06:42:09;;;;;;;9.93;1.98;;;2.20;99.90;;;;;;5006571;28;20488;-68
2022/01/21 06:44:35;;;;;;;9.52;2.03;;;2.10;99.90;;;;;;5023695;28;20148;-68
2022/01/21 06:47:01;;;;;;;7.90;1.80;;;2.10;99.90;;;;;;5010919;28;20071;-67
2022/01/21 06:49:27;;;;;;;9.38;2.35;;;2.10;99.90;;;;;;5007929;28;20052;-68
2022/01/21 06:51:53;;;;;;;17.52;2.20;;;2.10;99.90;;;;;;4998551;28;20076;-67
2022/01/21 06:54:18;;;;;;;12.85;1.98;;;2.00;99.90;;;;;;5026490;28;20048;-69
2022/01/21 06:56:46;;;;;;;6.60;1.65;;;2.00;99.90;;;;;;5027569;28;20147;-69
2022/01/21 06:59:11;;;;;;;10.57;1.90;;;1.90;99.90;;;;;;5029758;28;20044;-67
2022/01/21 07:01:37;;;;;;;16.00;2.38;;;1.90;99.90;;;;;;5014895;28;20075;-69
2022/01/21 07:04:03;;;;;;;11.52;2.30;;;1.90;99.90;;;;;;5025372;28;20048;-69
2022/01/21 07:06:29;;;;;;;10.23;2.08;;;1.90;99.90;;;;;;5017764;28;20050;-69
2022/01/21 07:08:55;;;;;;;11.00;1.73;;;1.80;99.90;;;;;;5033287;28;20046;-67
2022/01/21 07:11:21;;;;;;;13.55;2.10;;;1.80;99.90;;;;;;5030692;28;20046;-69
2022/01/21 07:13:46;;;;;;;10.80;2.42;;;1.80;99.90;;;;;;5011234;28;20056;-67
2022/01/21 07:16:12;;;;;;;12.85;2.65;;;1.70;99.90;;;;;;4993462;28;20052;-69
2022/01/21 07:18:38;;;;;;;10.50;2.17;;;1.70;99.90;;;;;;5011342;28;20041;-69
2022/01/21 07:21:04;;;;;;;18.63;2.85;;;1.60;99.90;;;;;;5028749;28;20115;-68
2022/01/21 07:23:30;;;;;;;11.57;2.97;;;1.60;99.90;;;;;;5026404;28;20044;-68
2022/01/21 07:25:57;;;;;;;8.35;2.72;;;1.60;99.90;;;;;;5012867;28;20307;-68
2022/01/21 07:28:23;;;;;;;15.15;2.50;;;1.50;99.90;;;;;;5011380;28;20049;-69
2022/01/21 07:30:49;;;;;;;13.48;2.50;;;1.50;99.90;;;;;;5031445;28;20056;-68
2022/01/21 07:33:15;;;;;;;10.93;2.78;;;1.50;99.90;;;;;;5020635;28;20119;-69
2022/01/21 07:35:41;;;;;;;15.75;2.20;;;1.50;99.90;;;;;;5018384;28;20056;-67
2022/01/21 07:38:07;;;;;;;14.07;2.03;;;1.40;99.90;;;;;;5001748;28;20080;-69
2022/01/21 07:40:33;;;;;;;12.80;2.35;;;1.40;99.90;;;;;;5010000;28;20721;-68
2022/01/21 07:42:59;;;;;;;15.27;2.53;;;1.40;99.90;;;;;;5014348;28;20048;-68
2022/01/21 07:45:25;;;;;;;14.07;2.70;;;1.40;99.90;;;;;;5025972;28;20100;-71
2022/01/21 07:47:51;;;;;;;16.20;2.50;;;1.40;99.90;;;;;;5027220;28;20076;-68
2022/01/21 07:50:16;;;;;;;16.48;2.90;;;1.40;99.90;;;;;;5016387;28;20127;-63
2022/01/21 07:52:42;;;;;;;15.07;2.47;;;1.40;99.90;;;;;;5028317;28;20063;-63
2022/01/21 07:55:08;;;;;;;15.65;3.35;;;1.40;99.90;;;;;;5009730;28;20041;-63
2022/01/21 07:57:34;;;;;;;20.10;2.95;;;1.50;99.90;;;;;;4990004;28;20159;-65
2022/01/21 08:00:00;;;;;;;25.27;3.55;;;1.50;99.90;;;;;;5009345;28;20105;-64
2022/01/21 08:02:28;;;;;;;19.20;3.13;;;1.60;99.90;;;;;;5013739;28;20561;-64
2022/01/21 08:04:55;;;;;;;23.05;3.60;;;1.70;99.90;;;;;;5022218;28;20091;-64
2022/01/21 08:07:22;;;;;;;15.90;2.72;;;1.70;99.90;;;;;;5044405;28;20048;-65
2022/01/21 08:09:49;;;;;;;13.15;2.63;;;1.70;99.90;;;;;;5020204;28;20071;-65
2022/01/21 08:12:18;;;;;;;14.80;2.92;;;1.70;99.90;;;;;;5048595;28;20083;-63
2022/01/21 08:14:43;;;;;;;18.33;3.47;;;1.70;99.90;;;;;;5026026;28;20080;-65
2022/01/21 08:17:09;;;;;;;15.65;2.47;;;1.70;99.90;;;;;;5012078;28;20163;-63
2022/01/21 08:19:35;;;;;;;25.40;2.53;;;1.70;99.90;;;;;;5014550;28;20049;-63
2022/01/21 08:22:01;;;;;;;21.45;3.22;;;1.70;99.90;;;;;;5029781;28;20133;-65
2022/01/21 08:24:27;;;;;;;18.60;2.90;;;1.70;99.90;;;;;;5027052;28;20087;-62
2022/01/21 08:26:53;;;;;;;29.80;3.45;;;1.80;99.90;;;;;;5034801;28;20147;-63
2022/01/21 08:29:19;;;;;;;23.85;3.25;;;1.90;99.90;;;;;;5023636;28;20052;-64
2022/01/21 08:31:45;;;;;;;26.08;3.05;;;1.90;99.90;;;;;;5018633;28;20098;-63
2022/01/21 08:34:13;;;;;;;19.67;3.28;;;1.90;99.90;;;;;;5030774;28;20048;-63
2022/01/21 08:36:39;;;;;;;16.08;2.88;;;2.00;99.90;;;;;;5031378;28;20071;-62
2022/01/21 08:39:06;;;;;;;23.48;3.30;;;1.90;99.90;;;;;;5016022;28;20364;-64
2022/01/21 08:41:32;;;;;;;14.10;2.80;;;2.00;99.90;;;;;;5022821;28;20522;-63
2022/01/21 08:43:58;;;;;;;17.63;2.83;;;2.00;99.90;;;;;;5020490;28;20040;-63
2022/01/21 08:46:24;;;;;;;17.05;3.17;;;2.00;99.90;;;;;;5029250;28;20164;-64
2022/01/21 08:48:50;;;;;;;18.83;3.05;;;2.10;99.90;;;;;;5030579;28;20044;-63
2022/01/21 08:51:25;;;;;;;19.83;2.50;;;2.10;99.90;;;;;;5031622;28;20055;-63
2022/01/21 08:53:50;;;;;;;23.73;4.22;;;2.20;99.90;;;;;;4995945;28;20049;-64
2022/01/21 08:56:18;;;;;;;14.02;3.03;;;2.30;99.90;;;;;;5015066;28;20414;-63
2022/01/21 08:58:46;;;;;;;21.73;3.53;;;2.30;99.90;;;;;;5039320;28;20207;-63
2022/01/21 09:01:13;;;;;;;20.90;3.50;;;2.30;99.90;;;;;;5029547;28;20095;-63
2022/01/21 09:03:41;;;;;;;18.17;3.17;;;2.40;99.90;;;;;;5013730;28;20080;-64
2022/01/21 09:06:07;;;;;;;17.00;3.65;;;2.40;99.90;;;;;;5025874;28;20049;-64
2022/01/21 09:08:34;;;;;;;21.95;3.95;;;2.50;99.90;;;;;;5004618;28;20479;-64
2022/01/21 09:11:03;;;;;;;17.20;3.33;;;2.50;99.90;;;;;;4998703;28;20049;-63
2022/01/21 09:13:30;;;;;;;25.95;4.28;;;2.60;99.90;;;;;;5014499;28;20049;-63
2022/01/21 09:16:01;;;;;;;27.17;3.85;;;2.60;99.90;;;;;;5026578;28;20419;-64
2022/01/21 09:18:34;;;;;;;26.00;4.25;;;2.70;99.90;;;;;;5031504;28;20090;-64
2022/01/21 09:21:01;;;;;;;25.00;4.22;;;2.70;99.90;;;;;;5028390;28;20135;-63
2022/01/21 09:23:27;;;;;;;18.15;3.63;;;2.80;99.90;;;;;;5027562;28;20045;-63
2022/01/21 09:25:53;;;;;;;24.35;3.95;;;2.80;99.90;;;;;;5012603;28;20045;-64
2022/01/21 09:28:19;;;;;;;28.05;4.05;;;2.90;99.90;;;;;;5042981;28;20087;-63
2022/01/21 09:30:44;;;;;;;32.47;3.90;;;3.00;99.90;;;;;;5030511;28;20044;-63
2022/01/21 09:33:10;;;;;;;22.83;3.45;;;3.10;99.90;;;;;;5001837;28;20087;-63
2022/01/21 09:35:36;;;;;;;34.38;3.75;;;3.10;99.90;;;;;;5031054;28;20064;-63
2022/01/21 09:38:02;;;;;;;26.38;3.25;;;3.20;99.90;;;;;;5014756;28;20115;-64
2022/01/21 09:40:32;;;;;;;31.25;4.60;;;3.20;99.90;;;;;;5034873;28;20163;-63
2022/01/21 09:42:59;;;;;;;31.63;4.38;;;3.30;99.90;;;;;;5025182;28;20500;-63
2022/01/21 09:45:27;;;;;;;33.60;4.10;;;3.30;99.90;;;;;;5026843;28;20048;-63
2022/01/21 09:47:55;;;;;;;33.83;4.32;;;3.40;99.90;;;;;;5033947;28;20049;-65
2022/01/21 09:50:22;;;;;;;25.05;4.05;;;3.40;99.90;;;;;;5034635;28;20078;-64
2022/01/21 09:52:49;;;;;;;24.48;3.63;;;3.40;99.90;;;;;;5030558;28;20100;-63
2022/01/21 09:55:17;;;;;;;26.95;3.58;;;3.40;99.90;;;;;;5016795;28;20049;-65
2022/01/21 09:57:48;;;;;;;26.88;3.30;;;3.50;99.90;;;;;;5010717;28;20060;-64
2022/01/21 10:00:15;;;;;;;30.10;3.83;;;3.60;99.90;;;;;;5050579;28;20041;-64
2022/01/21 10:02:43;;;;;;;31.15;3.70;;;3.70;99.90;;;;;;5014291;28;20048;-63
2022/01/21 10:05:09;;;;;;;24.80;3.15;;;3.80;99.90;;;;;;5014988;28;20528;-64
2022/01/21 10:07:38;;;;;;;25.15;3.33;;;3.90;99.90;;;;;;5030895;28;20556;-63
2022/01/21 10:10:08;;;;;;;24.48;3.13;;;4.00;99.90;;;;;;5032034;28;20383;-63
2022/01/21 10:12:35;;;;;;;26.05;3.05;;;4.00;99.90;;;;;;5035398;28;20080;-63
2022/01/21 10:15:06;;;;;;;21.75;3.47;;;4.20;99.90;;;;;;5026730;28;20072;-63
2022/01/21 10:17:33;;;;;;;23.30;3.70;;;4.30;99.90;;;;;;5047878;28;20049;-64
2022/01/21 10:20:13;;;;;;;30.35;3.58;;;4.50;99.90;;;;;;5030538;28;20048;-64
2022/01/21 10:22:59;;;;;;;18.00;3.28;;;4.50;99.90;;;;;;5030129;28;20571;-63
2022/01/21 10:25:26;;;;;;;21.42;2.70;;;4.60;99.90;;;;;;5031630;28;20814;-64
2022/01/21 10:28:06;;;;;;;20.92;3.08;;;4.60;99.90;;;;;;5031082;28;20040;-64
2022/01/21 10:30:32;;;;;;;15.75;2.63;;;4.70;99.90;;;;;;5040311;28;20048;-65
2022/01/21 10:32:58;;;;;;;27.08;3.30;;;4.80;99.90;;;;;;5018471;28;20082;-64
2022/01/21 10:35:26;;;;;;;24.42;2.95;;;4.80;99.90;;;;;;5044100;28;20777;-64
2022/01/21 10:37:56;;;;;;;25.33;2.75;;;4.90;99.90;;;;;;5029202;28;20080;-64
2022/01/21 10:40:23;;;;;;;19.48;3.25;;;4.90;99.90;;;;;;5032081;28;20500;-63
2022/01/21 10:42:49;;;;;;;20.50;3.17;;;5.00;99.90;;;;;;5013229;28;20051;-66
2022/01/21 10:45:15;;;;;;;33.03;3.25;;;5.10;99.90;;;;;;5002830;28;20073;-63
2022/01/21 10:47:50;;;;;;;28.38;3.25;;;5.10;99.90;;;;;;5031203;28;20076;-65
2022/01/21 10:50:20;;;;;;;25.45;3.33;;;5.10;99.90;;;;;;5030834;28;20060;-64
2022/01/21 10:52:53;;;;;;;26.88;3.30;;;5.20;99.90;;;;;;5046830;28;20159;-65
2022/01/21 10:55:28;;;;;;;24.60;3.15;;;5.40;99.90;;;;;;5034469;28;20067;-65
2022/01/21 10:58:13;;;;;;;26.42;3.67;;;5.60;99.90;;;;;;5030436;28;20186;-65
2022/01/21 11:00:59;;;;;;;30.02;3.03;;;5.70;99.90;;;;;;5032533;28;20140;-65
2022/01/21 11:03:26;;;;;;;22.58;3.00;;;5.80;99.90;;;;;;5010467;28;21119;-65
2022/01/21 11:06:13;;;;;;;17.90;2.83;;;5.90;99.90;;;;;;5000527;28;20037;-64
2022/01/21 11:08:39;;;;;;;17.60;2.97;;;5.90;99.90;;;;;;5030427;28;20047;-66
2022/01/21 11:11:05;;;;;;;27.02;3.53;;;6.10;99.90;;;;;;5029929;28;23397;-65
2022/01/21 11:13:32;;;;;;;24.25;2.92;;;6.10;99.90;;;;;;5018232;28;20495;-63
2022/01/21 11:16:20;;;;;;;24.83;3.65;;;6.20;99.90;;;;;;5035387;28;20218;-64
2022/01/21 11:18:54;;;;;;;22.67;3.22;;;6.30;99.90;;;;;;5013606;28;20057;-64
2022/01/21 11:21:21;;;;;;;22.83;3.78;;;6.30;99.90;;;;;;5016247;28;20094;-63
2022/01/21 11:23:48;;;;;;;15.10;2.63;;;6.30;99.90;;;;;;5026655;28;20042;-65
2022/01/21 11:26:17;;;;;;;24.88;2.97;;;6.30;99.90;;;;;;5009230;28;20041;-65
2022/01/21 11:28:46;;;;;;;17.95;2.97;;;6.40;99.90;;;;;;5029203;28;20059;-64
2022/01/21 11:31:15;;;;;;;19.52;3.00;;;6.30;99.90;;;;;;5019087;28;20076;-63
2022/01/21 11:33:40;;;;;;;15.75;2.60;;;6.40;99.90;;;;;;5026509;28;20541;-64
2022/01/21 11:36:07;;;;;;;16.92;2.47;;;6.40;99.90;;;;;;5022808;28;20044;-65
2022/01/21 11:38:37;;;;;;;16.13;2.45;;;6.50;99.90;;;;;;5034252;28;20045;-65
2022/01/21 11:41:05;;;;;;;18.23;2.83;;;6.50;99.90;;;;;;5029027;28;20052;-63
2022/01/21 11:43:34;;;;;;;14.45;3.28;;;6.50;99.90;;;;;;5036104;28;20041;-64
2022/01/21 11:46:17;;;;;;;29.90;3.22;;;6.50;99.90;;;;;;5019497;28;20055;-64
2022/01/21 11:48:51;;;;;;;11.52;2.17;;;6.50;99.90;;;;;;5031274;28;20041;-65
2022/01/21 11:51:21;;;;;;;19.33;3.30;;;6.40;99.90;;;;;;5011962;28;20056;-64
2022/01/21 11:53:57;;;;;;;14.82;2.78;;;6.40;99.90;;;;;;5012883;28;20538;-65
2022/01/21 11:56:43;;;;;;;17.35;2.38;;;6.50;99.90;;;;;;4995205;28;20594;-65
2022/01/21 11:59:26;;;;;;;20.33;2.83;;;6.50;99.90;;;;;;5026032;28;20550;-65
2022/01/21 12:01:53;;;;;;;21.77;3.17;;;6.50;99.90;;;;;;5025915;28;20045;-64
2022/01/21 12:04:31;;;;;;;18.60;2.50;;;6.50;99.90;;;;;;5020105;28;20418;-65
2022/01/21 12:06:57;;;;;;;20.92;2.92;;;6.50;99.90;;;;;;5015031;28;20049;-64
2022/01/21 12:09:55;;;;;;;14.25;3.45;;;6.60;99.90;;;;;;5024237;28;20083;-64
2022/01/21 12:12:22;;;;;;;20.88;3.05;;;6.60;99.90;;;;;;5038140;28;20598;-64
2022/01/21 12:14:54;;;;;;;20.27;2.83;;;6.60;99.90;;;;;;5007032;28;20460;-65
2022/01/21 12:17:48;;;;;;;17.50;2.38;;;6.60;99.90;;;;;;5023755;28;20048;-63
2022/01/21 12:20:14;;;;;;;21.13;2.20;;;6.70;99.90;;;;;;5017112;28;20107;-64
2022/01/21 12:22:40;;;;;;;18.35;2.40;;;6.70;99.90;;;;;;5034276;28;20037;-63
2022/01/21 12:25:13;;;;;;;14.20;2.28;;;6.70;99.90;;;;;;5009055;28;20055;-65
2022/01/21 12:27:59;;;;;;;18.05;3.05;;;6.80;99.90;;;;;;5012465;28;20120;-65
2022/01/21 12:30:31;;;;;;;24.55;3.20;;;6.80;99.90;;;;;;5025466;28;20495;-64
2022/01/21 12:33:07;;;;;;;14.07;2.80;;;6.80;99.90;;;;;;5009341;28;20053;-64
2022/01/21 12:35:34;;;;;;;21.98;3.00;;;6.80;99.90;;;;;;5023269;28;20218;-65
2022/01/21 12:41:04;;;;;;;22.70;3.97;;;6.70;99.90;;;;;;5023607;28;20508;-65
2022/01/21 12:43:41;;;;;;;15.95;2.70;;;6.80;99.90;;;;;;5021152;28;20059;-65
2022/01/21 12:46:29;;;;;;;21.70;3.28;;;6.70;99.90;;;;;;5014359;28;20534;-65
2022/01/21 12:48:56;;;;;;;20.42;2.78;;;6.70;99.90;;;;;;5019563;28;20095;-64
2022/01/21 12:56:44;;;;;;;19.98;2.67;;;6.70;99.90;;;;;;5031690;28;20628;-64
2022/01/21 12:59:37;;;;;;;18.35;2.90;;;6.70;99.90;;;;;;5014977;28;20040;-64
2022/01/21 13:02:05;;;;;;;13.10;2.90;;;6.70;99.90;;;;;;5023692;28;20195;-65
2022/01/21 13:04:56;;;;;;;19.35;2.70;;;6.70;99.90;;;;;;5024692;28;20098;-64
2022/01/21 13:07:47;;;;;;;21.42;2.97;;;6.70;99.90;;;;;;5034679;28;20049;-64
2022/01/21 13:10:26;;;;;;;29.50;3.65;;;6.70;99.90;;;;;;5028169;28;20052;-64
2022/01/21 13:15:43;;;;;;;22.58;3.75;;;6.70;99.90;;;;;;5008786;28;20508;-65
2022/01/21 13:18:14;;;;;;;16.70;3.47;;;6.70;99.90;;;;;;5032535;28;20092;-65
2022/01/21 13:20:44;;;;;;;32.00;3.58;;;6.70;99.90;;;;;;5017024;28;20056;-65
2022/01/21 13:23:12;;;;;;;23.75;3.90;;;6.70;99.90;;;;;;5009761;28;20128;-65
2022/01/21 13:25:38;;;;;;;27.50;3.40;;;6.70;99.90;;;;;;5004453;28;20045;-65
2022/01/21 13:28:05;;;;;;;22.33;3.45;;;6.60;99.90;;;;;;5011191;28;20523;-64
2022/01/21 13:30:36;;;;;;;26.05;3.55;;;6.70;99.90;;;;;;5015842;28;20404;-64
2022/01/21 13:33:07;;;;;;;29.15;4.00;;;6.60;99.90;;;;;;5013827;28;20057;-65
2022/01/21 13:35:35;;;;;;;27.20;3.70;;;6.60;99.90;;;;;;5001341;28;20053;-65
2022/01/21 13:38:10;;;;;;;26.75;3.63;;;6.60;99.90;;;;;;5005788;28;20119;-64
2022/01/21 13:40:52;;;;;;;28.40;4.20;;;6.50;99.90;;;;;;5030270;28;20049;-64
2022/01/21 13:43:21;;;;;;;18.95;3.15;;;6.60;99.90;;;;;;5015338;28;20438;-63
2022/01/21 13:46:15;;;;;;;18.48;3.17;;;6.60;99.90;;;;;;5020661;28;20492;-64
2022/01/21 13:48:41;;;;;;;24.92;2.55;;;6.60;99.90;;;;;;5021935;28;20049;-65
2022/01/21 13:51:09;;;;;;;25.63;2.47;;;6.60;99.90;;;;;;5017138;28;20072;-64
2022/01/21 13:53:40;;;;;;;24.20;2.75;;;6.60;99.90;;;;;;5032221;28;20048;-64
2022/01/21 13:56:08;;;;;;;15.80;2.88;;;6.60;99.90;;;;;;5019956;28;21389;-64
2022/01/21 13:58:36;;;;;;;18.88;2.90;;;6.60;99.90;;;;;;5031661;28;20057;-65
2022/01/21 14:01:10;;;;;;;25.02;2.85;;;6.60;99.90;;;;;;5033003;28;20051;-64
2022/01/21 14:03:41;;;;;;;18.65;2.95;;;6.70;99.90;;;;;;5034426;28;20071;-65